createdAt,value
2023-04-06T00:02:04.839Z,51.43
2023-04-06T00:04:32.630Z,51.10
2023-04-06T00:07:00.624Z,51.35
2023-04-06T00:09:29.942Z,51.27
2023-04-06T00:11:58.754Z,51.76
2023-04-06T00:14:26.611Z,51.75
2023-04-06T00:16:54.427Z,51.11
2023-04-06T00:19:22.409Z,51.27
2023-04-06T00:21:50.255Z,51.31
2023-04-06T00:24:18.049Z,51.10
2023-04-06T00:26:47.187Z,51.46
2023-04-06T00:29:14.998Z,51.80
2023-04-06T00:31:42.813Z,52.26
2023-04-06T00:34:11.778Z,51.41
2023-04-06T00:36:39.524Z,53.09
2023-04-06T00:39:07.650Z,52.67
2023-04-06T00:41:35.706Z,52.10
2023-04-06T00:44:04.906Z,52.18
2023-04-06T00:46:32.813Z,51.62
2023-04-06T00:49:00.646Z,52.44
2023-04-06T00:51:28.615Z,52.47
2023-04-06T00:53:56.407Z,51.96
2023-04-06T00:56:24.676Z,51.96
2023-04-06T00:58:52.756Z,52.41
2023-04-06T01:01:22.090Z,51.33
2023-04-06T01:03:51.320Z,51.52
2023-04-06T01:06:19.203Z,51.61
2023-04-06T01:08:47.118Z,50.92
2023-04-06T01:11:14.899Z,51.23
2023-04-06T01:13:42.688Z,51.54
2023-04-06T01:16:10.891Z,51.45
2023-04-06T01:18:40.609Z,50.96
2023-04-06T01:21:09.663Z,51.56
2023-04-06T01:23:38.863Z,51.26
2023-04-06T01:26:06.848Z,51.20
2023-04-06T01:28:34.673Z,51.64
2023-04-06T01:31:02.538Z,51.24
2023-04-06T01:33:30.456Z,51.47
2023-04-06T01:35:58.389Z,51.22
2023-04-06T01:38:26.675Z,51.51
2023-04-06T01:40:56.014Z,51.66
2023-04-06T01:43:23.932Z,51.51
2023-04-06T01:45:52.019Z,51.47
2023-04-06T01:48:19.810Z,51.16
2023-04-06T01:50:47.618Z,51.55
2023-04-06T01:53:15.531Z,52.68
2023-04-06T01:55:43.317Z,52.13
2023-04-06T01:58:12.440Z,52.69
2023-04-06T02:00:40.374Z,52.76
2023-04-06T02:03:08.194Z,52.19
2023-04-06T02:05:38.819Z,51.87
2023-04-06T02:08:07.012Z,51.71
2023-04-06T02:10:35.358Z,51.11
2023-04-06T02:13:03.341Z,51.21
2023-04-06T02:15:32.484Z,51.42
2023-04-06T02:18:01.708Z,51.38
2023-04-06T02:20:29.643Z,51.56
2023-04-06T02:22:58.892Z,51.51
2023-04-06T02:25:27.467Z,51.75
2023-04-06T02:27:55.306Z,51.31
2023-04-06T02:30:23.076Z,51.46
2023-04-06T02:32:52.361Z,51.00
2023-04-06T02:35:20.556Z,50.92
2023-04-06T02:37:48.407Z,50.48
2023-04-06T02:40:16.401Z,51.01
2023-04-06T02:42:44.235Z,50.95
2023-04-06T02:45:12.280Z,50.70
2023-04-06T02:47:40.174Z,50.98
2023-04-06T02:50:10.149Z,50.88
2023-04-06T02:52:37.958Z,50.37
2023-04-06T02:55:08.478Z,51.30
2023-04-06T02:57:36.291Z,51.10
2023-04-06T03:00:04.485Z,51.67
2023-04-06T03:02:32.266Z,51.91
2023-04-06T03:05:00.041Z,51.75
2023-04-06T03:07:29.307Z,51.74
2023-04-06T03:09:57.181Z,51.06
2023-04-06T03:12:25.122Z,50.99
2023-04-06T03:14:53.060Z,50.94
2023-04-06T03:17:20.861Z,50.89
2023-04-06T03:19:48.579Z,51.17
2023-04-06T03:22:16.637Z,52.09
2023-04-06T03:24:45.830Z,51.38
2023-04-06T03:27:13.707Z,51.44
2023-04-06T03:29:41.497Z,50.79
2023-04-06T03:32:11.067Z,51.79
2023-04-06T03:34:40.386Z,51.16
2023-04-06T03:37:10.636Z,52.17
2023-04-06T03:39:38.796Z,53.02
2023-04-06T03:42:08.039Z,52.16
2023-04-06T03:44:36.008Z,52.63
2023-04-06T03:47:03.995Z,52.57
2023-04-06T03:49:31.823Z,51.91
2023-04-06T03:51:59.610Z,50.98
2023-04-06T03:54:27.369Z,51.51
2023-04-06T03:56:56.055Z,51.26
2023-04-06T03:59:25.517Z,50.89
2023-04-06T04:01:53.356Z,50.53
2023-04-06T04:04:21.288Z,51.40
2023-04-06T04:06:49.179Z,51.11
2023-04-06T04:09:16.969Z,50.77
2023-04-06T04:11:44.720Z,51.70
2023-04-06T04:14:12.462Z,51.09
2023-04-06T04:16:42.734Z,51.09
2023-04-06T04:19:11.160Z,51.42
2023-04-06T04:21:45.096Z,51.89
2023-04-06T04:24:12.941Z,51.97
2023-04-06T04:26:41.900Z,51.49
2023-04-06T04:29:09.967Z,52.42
2023-04-06T04:31:38.034Z,51.94
2023-04-06T04:34:07.884Z,52.85
2023-04-06T04:36:35.757Z,52.40
2023-04-06T04:39:03.668Z,52.30
2023-04-06T04:41:31.868Z,52.37
2023-04-06T04:43:59.698Z,52.43
2023-04-06T04:46:27.556Z,52.19
2023-04-06T04:48:55.474Z,53.00
2023-04-06T04:51:25.624Z,52.04
2023-04-06T04:53:53.524Z,53.10
2023-04-06T04:56:21.285Z,53.50
2023-04-06T04:58:49.021Z,53.48
2023-04-06T05:01:16.874Z,55.04
2023-04-06T05:03:44.716Z,53.93
2023-04-06T05:06:13.531Z,53.72
2023-04-06T05:08:43.120Z,54.45
2023-04-06T05:11:11.195Z,54.35
2023-04-06T05:13:39.269Z,52.74
2023-04-06T05:16:07.858Z,52.27
2023-04-06T05:18:35.853Z,53.99
2023-04-06T05:21:03.695Z,53.69
2023-04-06T05:23:31.484Z,53.11
2023-04-06T05:26:01.092Z,52.30
2023-04-06T05:28:28.869Z,53.49
2023-04-06T05:30:57.821Z,52.47
2023-04-06T05:33:26.127Z,52.56
2023-04-06T05:35:53.987Z,52.50
2023-04-06T05:38:22.166Z,53.28
2023-04-06T05:40:50.073Z,53.32
2023-04-06T05:43:21.091Z,53.46
2023-04-06T05:45:50.246Z,53.08
2023-04-06T05:48:18.053Z,53.90
2023-04-06T05:50:50.482Z,53.89
2023-04-06T05:53:18.294Z,52.98
2023-04-06T05:55:46.064Z,52.73
2023-04-06T05:58:13.852Z,52.89
2023-04-06T06:00:43.572Z,53.28
2023-04-06T06:03:12.027Z,53.96
2023-04-06T06:05:39.995Z,52.69
2023-04-06T06:08:08.006Z,54.70
2023-04-06T06:10:35.760Z,53.93
2023-04-06T06:13:03.594Z,53.39
2023-04-06T06:15:31.533Z,53.83
2023-04-06T06:18:01.385Z,52.51
2023-04-06T06:20:29.341Z,52.27
2023-04-06T06:22:57.145Z,52.19
2023-04-06T06:25:25.121Z,52.59
2023-04-06T06:27:52.886Z,52.85
2023-04-06T06:30:23.053Z,52.21
2023-04-06T06:32:51.987Z,53.07
2023-04-06T06:35:21.282Z,51.66
2023-04-06T06:37:49.187Z,52.84
2023-04-06T06:40:18.940Z,52.70
2023-04-06T06:42:46.800Z,52.72
2023-04-06T06:45:14.656Z,52.16
2023-04-06T06:47:42.777Z,52.10
2023-04-06T06:50:10.984Z,52.72
2023-04-06T06:52:40.778Z,52.48
2023-04-06T06:55:09.808Z,52.88
2023-04-06T06:57:37.667Z,54.32
2023-04-06T07:00:06.419Z,54.80
2023-04-06T07:02:34.297Z,53.28
2023-04-06T07:05:04.411Z,54.81
2023-04-06T07:07:35.871Z,54.74
2023-04-06T07:10:05.586Z,56.14
2023-04-06T07:12:35.865Z,53.98
2023-04-06T07:15:03.846Z,53.26
2023-04-06T07:17:31.680Z,53.27
2023-04-06T07:19:59.442Z,55.13
2023-04-06T07:22:27.367Z,52.39
2023-04-06T07:24:55.827Z,52.05
2023-04-06T07:27:25.001Z,53.58
2023-04-06T07:29:52.797Z,55.88
2023-04-06T07:32:20.674Z,55.91
2023-04-06T07:34:48.464Z,56.39
2023-04-06T07:37:16.309Z,54.35
2023-04-06T07:39:44.068Z,55.58
2023-04-06T07:42:12.436Z,53.48
2023-04-06T07:44:41.646Z,52.34
2023-04-06T07:47:09.461Z,52.96
2023-04-06T07:49:37.263Z,54.99
2023-04-06T07:52:05.463Z,55.07
2023-04-06T07:54:33.355Z,55.12
2023-04-06T07:57:01.105Z,54.85
2023-04-06T07:59:28.943Z,56.14
2023-04-06T08:01:58.087Z,57.46
2023-04-06T08:04:26.034Z,57.19
2023-04-06T08:06:53.883Z,58.59
2023-04-06T08:09:21.698Z,57.75
2023-04-06T08:11:49.724Z,55.18
2023-04-06T08:14:17.790Z,56.19
2023-04-06T08:16:45.648Z,55.24
2023-04-06T08:19:18.103Z,54.79
2023-04-06T08:21:46.796Z,54.67
2023-04-06T08:24:14.665Z,53.47
2023-04-06T08:26:43.315Z,53.23
2023-04-06T08:29:11.282Z,51.98
2023-04-06T08:31:39.318Z,51.53
2023-04-06T08:34:09.515Z,51.30
2023-04-06T08:36:39.960Z,51.60
2023-04-06T08:39:07.777Z,52.27
2023-04-06T08:41:36.621Z,54.25
2023-04-06T08:44:05.910Z,53.06
2023-04-06T08:46:33.943Z,52.87
2023-04-06T08:49:03.361Z,54.70
2023-04-06T08:51:32.099Z,56.48
2023-04-06T08:54:02.160Z,53.59
2023-04-06T08:56:30.484Z,53.68
2023-04-06T08:58:59.219Z,53.60
2023-04-06T09:01:28.974Z,53.54
2023-04-06T09:03:59.762Z,53.80
2023-04-06T09:06:28.786Z,51.69
2023-04-06T09:08:57.936Z,53.64
2023-04-06T09:11:27.329Z,53.26
2023-04-06T09:13:57.135Z,53.30
2023-04-06T09:16:25.492Z,52.81
2023-04-06T09:18:53.395Z,52.76
2023-04-06T09:21:25.337Z,53.82
2023-04-06T09:24:01.606Z,52.82
2023-04-06T09:26:31.714Z,52.29
2023-04-06T09:29:02.090Z,50.46
2023-04-06T09:31:31.544Z,50.88
2023-04-06T09:33:59.509Z,56.00
2023-04-06T09:36:34.335Z,54.35
2023-04-06T09:39:04.710Z,52.93
2023-04-06T09:41:35.331Z,53.13
2023-04-06T09:44:07.639Z,57.49
2023-04-06T09:46:50.626Z,57.45
2023-04-06T09:49:24.835Z,58.51
2023-04-06T09:51:58.068Z,60.78
2023-04-06T09:54:30.743Z,63.43
2023-04-06T09:57:06.419Z,60.91
2023-04-06T09:59:44.237Z,61.53
2023-04-06T10:02:32.113Z,57.88
2023-04-06T10:05:07.730Z,60.07
2023-04-06T10:07:38.771Z,57.25
2023-04-06T10:10:13.598Z,60.90
2023-04-06T10:12:43.783Z,60.75
2023-04-06T10:15:12.654Z,59.74
2023-04-06T10:17:40.532Z,59.85
2023-04-06T10:20:13.504Z,58.40
2023-04-06T10:22:51.677Z,57.29
2023-04-06T10:25:19.457Z,55.34
2023-04-06T10:27:48.734Z,55.12
2023-04-06T10:30:18.417Z,55.11
2023-04-06T10:32:48.159Z,56.17
2023-04-06T10:35:17.854Z,56.59
2023-04-06T10:37:51.736Z,56.32
2023-04-06T10:40:26.640Z,54.41
2023-04-06T10:42:56.495Z,54.61
2023-04-06T10:45:25.838Z,54.08
2023-04-06T10:47:55.644Z,54.57
2023-04-06T10:50:24.374Z,54.74
2023-04-06T10:53:01.656Z,56.72
2023-04-06T10:55:30.415Z,56.10
2023-04-06T10:57:59.600Z,56.16
2023-04-06T11:00:36.076Z,53.69
2023-04-06T11:03:11.226Z,54.00
2023-04-06T11:05:39.108Z,53.12
2023-04-06T11:08:07.559Z,55.36
2023-04-06T11:10:35.385Z,56.04
2023-04-06T11:13:06.730Z,55.47
2023-04-06T11:15:38.243Z,56.90
2023-04-06T11:18:07.377Z,56.55
2023-04-06T11:20:35.256Z,54.64
2023-04-06T11:23:04.628Z,52.98
2023-04-06T11:25:33.617Z,54.00
2023-04-06T11:28:01.641Z,52.48
2023-04-06T11:30:31.354Z,53.85
2023-04-06T11:33:03.649Z,51.32
2023-04-06T11:35:34.667Z,50.99
2023-04-06T11:38:05.295Z,50.69
2023-04-06T11:40:34.191Z,51.50
2023-04-06T11:43:01.998Z,50.16
2023-04-06T11:45:41.852Z,49.85
2023-04-06T11:48:20.181Z,49.24
2023-04-06T11:50:48.767Z,50.37
2023-04-06T11:53:16.648Z,48.51
2023-04-06T11:55:47.661Z,49.46
2023-04-06T11:58:16.038Z,49.62
2023-04-06T12:00:47.437Z,49.28
2023-04-06T12:03:16.078Z,50.05
2023-04-06T12:05:43.986Z,51.73
2023-04-06T12:08:11.750Z,51.50
2023-04-06T12:10:39.574Z,49.39
2023-04-06T12:13:07.508Z,50.30
2023-04-06T12:15:35.474Z,50.18
2023-04-06T12:18:04.790Z,50.49
2023-04-06T12:20:33.670Z,50.29
2023-04-06T12:23:01.535Z,50.74
2023-04-06T12:25:30.149Z,52.40
2023-04-06T12:27:58.930Z,52.74
2023-04-06T12:30:26.733Z,52.47
2023-04-06T12:32:54.674Z,51.33
2023-04-06T12:35:23.858Z,52.03
2023-04-06T12:37:51.797Z,52.49
2023-04-06T12:40:19.756Z,52.52
2023-04-06T12:42:47.833Z,53.26
2023-04-06T12:45:15.636Z,52.71
2023-04-06T12:47:43.545Z,52.30
2023-04-06T12:50:11.692Z,51.09
2023-04-06T12:52:40.907Z,51.84
2023-04-06T12:55:09.833Z,52.30
2023-04-06T12:57:38.107Z,50.67
2023-04-06T13:00:09.164Z,53.08
2023-04-06T13:02:37.937Z,53.04
2023-04-06T13:05:06.402Z,51.15
2023-04-06T13:07:34.245Z,51.95
2023-04-06T13:10:03.478Z,50.67
2023-04-06T13:12:31.245Z,50.61
2023-04-06T13:14:59.020Z,50.89
2023-04-06T13:17:29.530Z,51.90
2023-04-06T13:19:57.518Z,52.06
2023-04-06T13:22:25.663Z,49.91
2023-04-06T13:24:53.455Z,49.00
2023-04-06T13:27:22.663Z,48.77
2023-04-06T13:29:50.482Z,49.89
2023-04-06T13:32:18.386Z,49.82
2023-04-06T13:34:46.722Z,48.71
2023-04-06T13:37:15.042Z,49.61
2023-04-06T13:39:42.861Z,50.06
2023-04-06T13:42:11.073Z,50.93
2023-04-06T13:44:40.345Z,50.28
2023-04-06T13:47:08.250Z,49.81
2023-04-06T13:49:36.953Z,51.75
2023-04-06T13:52:04.946Z,51.35
2023-04-06T13:54:32.767Z,52.28
2023-04-06T13:57:01.493Z,51.62
2023-04-06T13:59:34.244Z,50.85
2023-04-06T14:02:03.604Z,51.20
2023-04-06T14:04:32.171Z,51.57
2023-04-06T14:07:00.431Z,50.91
2023-04-06T14:09:28.727Z,50.16
2023-04-06T14:11:57.323Z,51.23
2023-04-06T14:14:25.591Z,51.40
2023-04-06T14:16:53.384Z,52.13
2023-04-06T14:19:22.794Z,52.42
2023-04-06T14:21:50.521Z,50.17
2023-04-06T14:24:20.037Z,51.12
2023-04-06T14:26:47.829Z,53.98
2023-04-06T14:29:16.781Z,50.45
2023-04-06T14:31:44.625Z,50.12
2023-04-06T14:34:12.388Z,50.01
2023-04-06T14:36:41.487Z,50.97
2023-04-06T14:39:10.831Z,52.02
2023-04-06T14:41:38.634Z,48.44
2023-04-06T14:44:07.234Z,47.74
2023-04-06T14:46:35.009Z,48.22
2023-04-06T14:49:02.775Z,46.74
2023-04-06T14:51:30.523Z,44.94
2023-04-06T14:53:59.589Z,44.76
2023-04-06T14:56:27.435Z,43.19
2023-04-06T14:58:55.913Z,46.82
2023-04-06T15:01:23.663Z,46.80
2023-04-06T15:03:51.704Z,46.46
2023-04-06T15:06:21.508Z,46.49
2023-04-06T15:08:50.006Z,46.03
2023-04-06T15:11:19.195Z,47.81
2023-04-06T15:13:47.424Z,47.32
2023-04-06T15:16:16.215Z,47.40
2023-04-06T15:18:43.914Z,46.25
2023-04-06T15:21:12.792Z,47.21
2023-04-06T15:23:49.485Z,47.88
2023-04-06T15:26:17.269Z,46.16
2023-04-06T15:28:46.436Z,46.06
2023-04-06T15:31:32.955Z,46.98
2023-04-06T15:34:04.139Z,45.71
2023-04-06T15:36:31.960Z,47.18
2023-04-06T15:39:00.559Z,47.23
2023-04-06T15:41:28.901Z,46.94
2023-04-06T15:43:58.080Z,45.64
2023-04-06T15:46:28.483Z,44.42
2023-04-06T15:48:57.046Z,44.02
2023-04-06T15:51:25.259Z,44.59
2023-04-06T15:53:52.952Z,43.22
2023-04-06T15:56:20.963Z,43.54
2023-04-06T15:58:49.622Z,44.98
2023-04-06T16:01:20.038Z,45.48
2023-04-06T16:03:48.087Z,44.78
2023-04-06T16:06:16.044Z,44.87
2023-04-06T16:08:44.103Z,44.03
2023-04-06T16:11:12.034Z,44.72
2023-04-06T16:13:43.228Z,43.21
2023-04-06T16:16:12.913Z,44.61
2023-04-06T16:18:42.063Z,46.06
2023-04-06T16:21:09.790Z,42.66
2023-04-06T16:23:37.512Z,42.26
2023-04-06T16:26:12.852Z,43.67
2023-04-06T16:28:40.912Z,43.51
2023-04-06T16:31:08.652Z,43.14
2023-04-06T16:33:36.444Z,44.15
2023-04-06T16:36:05.978Z,43.93
2023-04-06T16:38:35.699Z,43.83
2023-04-06T16:41:03.916Z,44.43
2023-04-06T16:43:32.246Z,43.82
2023-04-06T16:46:00.026Z,43.34
2023-04-06T16:48:27.948Z,42.89
2023-04-06T16:50:56.344Z,42.81
2023-04-06T16:53:25.494Z,41.97
2023-04-06T16:55:53.223Z,42.73
2023-04-06T16:58:20.940Z,43.57
2023-04-06T17:00:48.761Z,44.53
2023-04-06T17:03:16.680Z,44.83
2023-04-06T17:05:45.331Z,44.32
2023-04-06T17:08:13.003Z,42.79
2023-04-06T17:13:14.680Z,43.40
2023-04-06T17:15:43.154Z,44.20
2023-04-06T17:18:11.558Z,44.10
2023-04-06T17:20:39.654Z,43.70
2023-04-06T17:23:07.401Z,43.79
2023-04-06T17:25:35.178Z,42.93
2023-04-06T17:28:04.326Z,43.19
2023-04-06T17:30:32.888Z,42.99
2023-04-06T17:33:00.881Z,43.25
2023-04-06T17:35:28.643Z,42.09
2023-04-06T17:37:56.308Z,43.97
2023-04-06T17:40:24.164Z,42.22
2023-04-06T17:42:51.990Z,42.37
2023-04-06T17:45:21.275Z,42.59
2023-04-06T17:47:49.024Z,43.01
2023-04-06T17:50:16.756Z,42.93
2023-04-06T17:55:13.506Z,42.44
2023-04-06T17:57:43.207Z,42.70
2023-04-06T18:00:12.228Z,42.70
2023-04-06T18:02:41.333Z,43.08
2023-04-06T18:05:09.750Z,43.31
2023-04-06T18:07:37.777Z,43.44
2023-04-06T18:10:06.683Z,42.69
2023-04-06T18:12:34.553Z,42.56
2023-04-06T18:15:02.534Z,43.03
2023-04-06T18:17:30.407Z,43.19
2023-04-06T18:19:59.483Z,43.39
2023-04-06T18:22:27.548Z,43.02
2023-04-06T18:24:55.251Z,43.08
2023-04-06T18:27:23.029Z,42.41
2023-04-06T18:29:50.985Z,42.72
2023-04-06T18:32:18.748Z,42.29
2023-04-06T18:34:46.442Z,43.83
2023-04-06T18:37:16.285Z,43.49
2023-04-06T18:39:44.219Z,43.11
2023-04-06T18:42:11.902Z,43.04
2023-04-06T18:44:39.679Z,42.63
2023-04-06T18:47:07.622Z,43.12
2023-04-06T18:49:35.388Z,43.32
2023-04-06T18:52:04.840Z,43.70
2023-04-06T18:54:33.917Z,42.89
2023-04-06T18:57:02.456Z,42.32
2023-04-06T18:59:31.632Z,43.98
2023-04-06T19:01:59.463Z,43.74
2023-04-06T19:04:29.287Z,44.18
2023-04-06T19:06:57.385Z,44.57
2023-04-06T19:09:25.397Z,44.01
2023-04-06T19:11:54.451Z,43.79
2023-04-06T19:14:22.199Z,43.24
2023-04-06T19:16:52.377Z,43.42
2023-04-06T19:19:21.077Z,43.59
2023-04-06T19:21:49.204Z,44.05
2023-04-06T19:24:16.982Z,44.10
2023-04-06T19:26:44.821Z,44.09
2023-04-06T19:29:15.024Z,44.13
2023-04-06T19:31:42.783Z,42.99
2023-04-06T19:34:11.110Z,43.89
2023-04-06T19:36:38.791Z,43.10
2023-04-06T19:39:06.520Z,43.96
2023-04-06T19:41:34.231Z,43.60
2023-04-06T19:44:01.992Z,43.25
2023-04-06T19:46:31.132Z,43.31
2023-04-06T19:48:59.086Z,43.40
2023-04-06T19:51:26.862Z,43.68
2023-04-06T19:53:54.574Z,43.39
2023-04-06T19:56:22.310Z,43.70
2023-04-06T19:58:50.153Z,43.92
2023-04-06T20:01:17.995Z,43.41
2023-04-06T20:03:47.348Z,43.65
2023-04-06T20:06:15.156Z,44.01
2023-04-06T20:08:43.003Z,44.54
2023-04-06T20:11:11.494Z,43.78
2023-04-06T20:13:39.248Z,43.95
2023-04-06T20:16:07.127Z,44.25
2023-04-06T20:18:35.128Z,45.07
2023-04-06T20:21:04.287Z,44.45
2023-04-06T20:23:34.839Z,45.36
2023-04-06T20:26:02.600Z,44.82
2023-04-06T20:28:30.341Z,44.40
2023-04-06T20:30:58.090Z,44.20
2023-04-06T20:33:25.814Z,44.62
2023-04-06T20:35:58.319Z,44.62
2023-04-06T20:38:33.271Z,44.89
2023-04-06T20:41:01.850Z,44.59
2023-04-06T20:43:30.231Z,45.06
2023-04-06T20:45:59.324Z,44.65
2023-04-06T20:48:27.349Z,45.63
2023-04-06T20:50:55.738Z,45.82
2023-04-06T20:53:23.793Z,45.53
2023-04-06T20:55:53.030Z,45.43
2023-04-06T20:58:21.004Z,47.04
2023-04-06T21:00:49.777Z,45.86
2023-04-06T21:03:18.068Z,45.67
2023-04-06T21:05:51.577Z,46.29
2023-04-06T21:08:19.437Z,45.45
2023-04-06T21:10:47.242Z,45.13
2023-04-06T21:13:16.732Z,46.41
2023-04-06T21:15:44.585Z,46.10
2023-04-06T21:18:12.680Z,45.85
2023-04-06T21:20:40.570Z,45.57
2023-04-06T21:23:08.289Z,45.07
2023-04-06T21:25:37.897Z,45.16
2023-04-06T21:28:06.058Z,45.55
2023-04-06T21:30:37.075Z,45.56
2023-04-06T21:33:04.979Z,44.50
2023-04-06T21:35:32.751Z,45.59
2023-04-06T21:38:00.628Z,45.27
2023-04-06T21:40:28.392Z,45.56
2023-04-06T21:42:56.164Z,45.35
2023-04-06T21:45:23.854Z,45.31
2023-04-06T21:47:52.982Z,45.88
2023-04-06T21:50:21.138Z,44.90
2023-04-06T21:52:49.337Z,45.77
2023-04-06T21:55:17.124Z,45.64
2023-04-06T21:57:45.354Z,45.96
2023-04-06T22:00:15.078Z,46.41
2023-04-06T22:02:43.190Z,45.92
2023-04-06T22:05:12.872Z,46.56
2023-04-06T22:07:40.760Z,46.24
2023-04-06T22:10:09.400Z,46.46
2023-04-06T22:12:37.206Z,46.10
2023-04-06T22:15:05.613Z,47.17
2023-04-06T22:17:33.447Z,46.87
2023-04-06T22:20:01.221Z,47.00
2023-04-06T22:22:30.314Z,47.08
2023-04-06T22:24:58.495Z,47.47
2023-04-06T22:27:26.345Z,47.09
2023-04-06T22:29:54.295Z,47.46
2023-04-06T22:32:22.071Z,47.28
2023-04-06T22:34:49.900Z,47.86
2023-04-06T22:37:17.627Z,47.53
2023-04-06T22:39:46.723Z,47.19
2023-04-06T22:42:14.476Z,47.26
2023-04-06T22:44:42.180Z,47.74
2023-04-06T22:47:09.962Z,47.85
2023-04-06T22:49:37.697Z,47.20
2023-04-06T22:52:05.421Z,47.30
2023-04-06T22:54:33.194Z,47.21
2023-04-06T22:57:02.968Z,47.33
2023-04-06T22:59:30.681Z,47.62
2023-04-06T23:01:58.510Z,46.60
2023-04-06T23:04:26.638Z,47.17
2023-04-06T23:06:54.569Z,46.22
2023-04-06T23:09:22.734Z,46.96
2023-04-06T23:11:50.446Z,47.37
2023-04-06T23:14:19.590Z,46.44
2023-04-06T23:16:47.336Z,46.90
2023-04-06T23:19:15.125Z,47.39
2023-04-06T23:21:42.986Z,48.11
2023-04-06T23:24:11.092Z,48.10
2023-04-06T23:26:38.784Z,47.67
2023-04-06T23:29:06.619Z,46.78
2023-04-06T23:31:35.854Z,47.46
2023-04-06T23:34:03.871Z,47.16
2023-04-06T23:36:32.895Z,47.63
2023-04-06T23:39:00.628Z,47.87
2023-04-06T23:41:28.311Z,48.17
2023-04-06T23:43:56.607Z,47.96
2023-04-06T23:46:24.612Z,47.77
2023-04-06T23:48:53.736Z,48.17
2023-04-06T23:51:21.584Z,47.28
2023-04-06T23:53:49.245Z,47.43
2023-04-06T23:56:16.914Z,48.09
2023-04-06T23:58:44.614Z,47.45
